createdAt,value
2019-04-27T00:00:38.386Z,97.20
2019-04-27T00:03:13.336Z,97.50
2019-04-27T00:05:43.670Z,98.10
2019-04-27T00:08:24.043Z,98.50
2019-04-27T00:11:09.868Z,98.30
2019-04-27T00:13:40.704Z,98.00
2019-04-27T00:16:11.093Z,97.90
2019-04-27T00:18:58.177Z,98.20
2019-04-27T00:21:32.852Z,98.30
2019-04-27T00:24:03.361Z,98.30
2019-04-27T00:26:33.431Z,99.00
2019-04-27T00:29:03.828Z,98.50
2019-04-27T00:31:33.696Z,98.00
2019-04-27T00:34:03.584Z,98.20
2019-04-27T00:36:36.311Z,98.60
2019-04-27T00:39:08.479Z,98.40
2019-04-27T00:41:37.745Z,97.90
2019-04-27T00:44:06.652Z,97.90
2019-04-27T00:46:35.456Z,97.70
2019-04-27T00:49:04.532Z,98.20
2019-04-27T00:51:33.319Z,98.30
2019-04-27T00:54:02.317Z,98.40
2019-04-27T00:56:33.835Z,98.80
2019-04-27T00:59:23.816Z,98.80
2019-04-27T01:02:00.280Z,98.70
2019-04-27T01:04:30.752Z,98.40
2019-04-27T01:06:59.401Z,98.20
2019-04-27T01:09:31.859Z,98.20
2019-04-27T01:12:00.625Z,98.00
2019-04-27T01:14:30.458Z,97.80
2019-04-27T01:16:59.892Z,97.90
2019-04-27T01:19:28.998Z,98.20
2019-04-27T01:21:58.915Z,98.30
2019-04-27T01:24:28.711Z,98.40
2019-04-27T01:27:14.492Z,98.20
2019-04-27T01:29:43.366Z,98.10
2019-04-27T01:32:13.596Z,98.00
2019-04-27T01:34:42.530Z,98.00
2019-04-27T01:37:11.198Z,98.20
2019-04-27T01:39:40.028Z,98.40
2019-04-27T01:42:08.900Z,98.50
2019-04-27T01:44:39.443Z,98.60
2019-04-27T01:47:08.638Z,98.80
2019-04-27T01:49:39.705Z,99.10
2019-04-27T01:52:09.641Z,99.20
2019-04-27T01:54:40.820Z,99.30
2019-04-27T01:57:10.349Z,99.50
2019-04-27T01:59:40.699Z,99.50
2019-04-27T02:02:22.825Z,99.50
2019-04-27T02:05:10.315Z,99.40
2019-04-27T02:07:40.037Z,99.10
2019-04-27T02:10:11.034Z,99.10
2019-04-27T02:12:44.029Z,99.40
2019-04-27T02:15:13.104Z,99.40
2019-04-27T02:17:42.482Z,99.40
2019-04-27T02:20:13.320Z,99.90
2019-04-27T02:22:44.426Z,99.90
2019-04-27T02:25:13.356Z,99.90
2019-04-27T02:27:59.245Z,99.90
2019-04-27T02:30:30.633Z,99.90
2019-04-27T02:33:20.170Z,99.90
2019-04-27T02:35:50.240Z,99.80
2019-04-27T02:38:17.360Z,99.80
2019-04-27T02:40:52.083Z,99.90
2019-04-27T02:43:22.729Z,99.90
2019-04-27T02:45:53.247Z,99.90
2019-04-27T02:48:22.010Z,99.90
2019-04-27T02:50:53.078Z,99.90
2019-04-27T02:53:39.322Z,99.90
2019-04-27T02:56:10.310Z,99.90
2019-04-27T02:58:40.481Z,99.90
2019-04-27T03:01:10.184Z,99.90
2019-04-27T03:03:41.107Z,99.90
2019-04-27T03:06:10.755Z,99.90
2019-04-27T03:08:42.582Z,99.90
2019-04-27T03:11:10.086Z,99.90
2019-04-27T03:13:51.699Z,99.90
2019-04-27T03:16:30.032Z,99.90
2019-04-27T03:19:18.045Z,99.90
2019-04-27T03:21:59.366Z,99.90
2019-04-27T03:24:49.584Z,99.90
2019-04-27T03:27:20.923Z,99.90
2019-04-27T03:29:50.062Z,99.90
2019-04-27T03:32:22.573Z,99.90
2019-04-27T03:34:52.365Z,99.90
2019-04-27T03:37:21.804Z,99.90
2019-04-27T03:39:50.647Z,99.90
2019-04-27T03:42:20.694Z,99.90
2019-04-27T03:44:50.209Z,99.90
2019-04-27T03:47:20.985Z,99.90
2019-04-27T03:49:50.736Z,99.90
2019-04-27T03:52:21.588Z,99.90
2019-04-27T03:55:05.224Z,99.90
2019-04-27T03:57:35.595Z,99.70
2019-04-27T04:00:21.505Z,99.30
2019-04-27T04:02:50.453Z,98.90
2019-04-27T04:05:21.097Z,98.50
2019-04-27T04:07:50.655Z,98.40
2019-04-27T04:10:19.950Z,98.30
2019-04-27T04:13:01.332Z,98.20
2019-04-27T04:15:31.699Z,98.20
2019-04-27T04:18:01.133Z,97.40
2019-04-27T04:20:30.724Z,96.50
2019-04-27T04:23:03.194Z,95.80
2019-04-27T04:25:33.632Z,95.50
2019-04-27T04:28:02.363Z,94.90
2019-04-27T04:30:31.050Z,92.40
2019-04-27T04:33:01.137Z,91.10
2019-04-27T04:35:33.319Z,88.30
2019-04-27T04:38:01.376Z,86.10
2019-04-27T04:40:31.629Z,83.50
2019-04-27T04:43:20.397Z,82.00
2019-04-27T04:45:52.219Z,78.80
2019-04-27T04:48:21.494Z,78.50
2019-04-27T04:50:50.432Z,76.20
2019-04-27T04:53:21.586Z,74.60
2019-04-27T04:55:50.528Z,73.50
2019-04-27T04:58:20.917Z,72.30
2019-04-27T05:00:50.317Z,71.30
2019-04-27T05:03:21.386Z,71.40
2019-04-27T05:05:50.125Z,70.60
2019-04-27T05:08:19.451Z,70.20
2019-04-27T05:10:49.659Z,70.00
2019-04-27T05:13:19.409Z,69.80
2019-04-27T05:15:48.803Z,69.70
2019-04-27T05:18:19.195Z,69.60
2019-04-27T05:20:56.564Z,68.50
2019-04-27T05:23:25.410Z,68.30
2019-04-27T05:25:53.936Z,68.40
2019-04-27T05:28:23.510Z,69.30
2019-04-27T05:30:52.142Z,70.30
2019-04-27T05:33:20.930Z,69.90
2019-04-27T05:35:50.640Z,69.70
2019-04-27T05:38:19.516Z,69.10
2019-04-27T05:40:50.014Z,68.80
2019-04-27T05:43:20.458Z,68.20
2019-04-27T05:46:13.375Z,67.40
2019-04-27T05:48:42.152Z,67.20
2019-04-27T05:51:11.380Z,66.90
2019-04-27T05:53:39.976Z,67.20
2019-04-27T05:56:09.434Z,66.60
2019-04-27T05:58:39.187Z,67.10
2019-04-27T06:01:10.940Z,67.90
2019-04-27T06:03:39.657Z,68.30
2019-04-27T06:06:09.643Z,68.00
2019-04-27T06:08:39.421Z,68.60
2019-04-27T06:11:09.407Z,67.20
2019-04-27T06:13:39.230Z,67.40
2019-04-27T06:16:09.484Z,66.40
2019-04-27T06:18:39.223Z,65.20
2019-04-27T06:21:09.868Z,68.10
2019-04-27T06:23:39.146Z,68.10
2019-04-27T06:26:11.360Z,68.40
2019-04-27T06:28:40.746Z,66.90
2019-04-27T06:31:09.536Z,65.00
2019-04-27T06:33:40.319Z,64.30
2019-04-27T06:36:10.456Z,62.80
2019-04-27T06:38:39.484Z,64.00
2019-04-27T06:41:09.994Z,63.30
2019-04-27T06:43:40.448Z,62.30
2019-04-27T06:46:09.526Z,62.70
2019-04-27T06:48:39.450Z,61.10
2019-04-27T06:51:09.672Z,59.60
2019-04-27T06:53:39.464Z,60.40
2019-04-27T06:56:09.886Z,62.40
2019-04-27T06:58:38.925Z,62.50
2019-04-27T07:01:09.458Z,60.50
2019-04-27T07:03:39.610Z,59.50
2019-04-27T07:06:08.858Z,60.10
2019-04-27T07:08:39.914Z,61.30
2019-04-27T07:11:11.602Z,59.20
2019-04-27T07:13:44.771Z,57.30
2019-04-27T07:16:13.995Z,56.30
2019-04-27T07:18:42.973Z,56.10
2019-04-27T07:21:18.781Z,57.20
2019-04-27T07:23:59.068Z,58.10
2019-04-27T07:26:30.647Z,59.10
2019-04-27T07:28:59.775Z,59.10
2019-04-27T07:31:31.882Z,59.30
2019-04-27T07:34:00.623Z,61.60
2019-04-27T07:36:29.368Z,65.20
2019-04-27T07:38:59.836Z,68.70
2019-04-27T07:41:29.177Z,71.10
2019-04-27T07:44:01.501Z,72.50
2019-04-27T07:46:31.776Z,73.60
2019-04-27T07:49:01.735Z,74.30
2019-04-27T07:51:34.042Z,75.70
2019-04-27T07:54:03.515Z,75.70
2019-04-27T07:56:33.827Z,75.20
2019-04-27T07:59:02.718Z,76.20
2019-04-27T08:01:31.523Z,76.80
2019-04-27T08:04:02.561Z,76.60
2019-04-27T08:06:31.262Z,78.20
2019-04-27T08:09:02.051Z,78.10
2019-04-27T08:11:32.835Z,78.40
2019-04-27T08:14:01.586Z,78.70
2019-04-27T08:16:30.277Z,78.90
2019-04-27T08:19:00.034Z,78.90
2019-04-27T08:21:29.687Z,78.80
2019-04-27T08:24:00.322Z,78.00
2019-04-27T08:26:30.982Z,77.90
2019-04-27T08:29:08.607Z,78.00
2019-04-27T08:31:39.003Z,77.60
2019-04-27T08:34:09.581Z,78.10
2019-04-27T08:36:38.899Z,76.80
2019-04-27T08:39:08.900Z,78.60
2019-04-27T08:41:40.156Z,78.30
2019-04-27T08:44:10.432Z,77.90
2019-04-27T08:46:39.983Z,77.60
2019-04-27T08:49:10.218Z,77.50
2019-04-27T08:51:39.189Z,76.60
2019-04-27T08:54:09.372Z,78.00
2019-04-27T08:56:39.566Z,77.60
2019-04-27T08:59:09.549Z,78.60
2019-04-27T09:01:39.702Z,77.40
2019-04-27T09:04:09.247Z,76.80
2019-04-27T09:06:40.949Z,76.30
2019-04-27T09:09:11.272Z,74.90
2019-04-27T09:11:49.271Z,73.00
2019-04-27T09:14:22.662Z,73.40
2019-04-27T09:16:59.992Z,72.90
2019-04-27T09:19:29.179Z,73.60
2019-04-27T09:22:15.962Z,73.30
2019-04-27T09:24:39.631Z,74.50
2019-04-27T09:27:09.575Z,75.00
2019-04-27T09:29:39.530Z,75.60
2019-04-27T09:32:11.311Z,75.40
2019-04-27T09:34:41.377Z,75.10
2019-04-27T09:37:11.263Z,74.80
2019-04-27T09:39:40.610Z,74.60
2019-04-27T09:42:10.768Z,73.00
2019-04-27T09:44:39.392Z,73.10
2019-04-27T09:47:08.084Z,73.80
2019-04-27T09:49:38.650Z,74.00
2019-04-27T09:52:08.033Z,74.90
2019-04-27T09:54:37.477Z,74.40
2019-04-27T09:57:07.270Z,72.20
2019-04-27T09:59:39.346Z,72.50
2019-04-27T10:02:08.639Z,72.00
2019-04-27T10:04:39.168Z,70.50
2019-04-27T10:07:08.168Z,70.40
2019-04-27T10:09:36.973Z,71.20
2019-04-27T10:12:07.494Z,71.70
2019-04-27T10:14:39.035Z,72.80
2019-04-27T10:17:07.785Z,72.60
2019-04-27T10:19:36.709Z,73.00
2019-04-27T10:22:05.962Z,72.60
2019-04-27T10:24:35.848Z,73.10
2019-04-27T10:27:07.878Z,73.30
2019-04-27T10:29:36.451Z,72.50
2019-04-27T10:32:08.743Z,72.60
2019-04-27T10:34:40.462Z,72.70
2019-04-27T10:37:09.235Z,72.80
2019-04-27T10:39:39.707Z,73.30
2019-04-27T10:42:08.303Z,73.60
2019-04-27T10:44:40.996Z,74.20
2019-04-27T10:47:09.787Z,74.30
2019-04-27T10:49:38.715Z,75.00
2019-04-27T10:52:11.061Z,75.00
2019-04-27T10:54:40.024Z,75.50
2019-04-27T10:57:10.393Z,76.00
2019-04-27T10:59:39.023Z,76.40
2019-04-27T11:02:07.980Z,76.30
2019-04-27T11:04:53.222Z,76.80
2019-04-27T11:07:23.622Z,76.80
2019-04-27T11:09:53.239Z,77.60
2019-04-27T11:12:21.904Z,78.30
2019-04-27T11:14:50.568Z,77.30
2019-04-27T11:17:19.414Z,77.00
2019-04-27T11:19:48.426Z,77.30
2019-04-27T11:22:17.049Z,77.00
2019-04-27T11:24:45.811Z,76.70
2019-04-27T11:27:16.352Z,76.90
2019-04-27T11:29:46.339Z,77.00
2019-04-27T11:32:16.209Z,77.20
2019-04-27T11:34:58.445Z,77.00
2019-04-27T11:37:28.902Z,77.20
2019-04-27T11:39:57.947Z,76.90
2019-04-27T11:42:27.169Z,77.30
2019-04-27T11:44:58.798Z,78.30
2019-04-27T11:47:27.643Z,78.00
2019-04-27T11:49:59.706Z,78.60
2019-04-27T11:52:28.336Z,78.60
2019-04-27T11:55:00.820Z,79.10
2019-04-27T11:57:30.629Z,79.70
2019-04-27T11:59:59.307Z,80.20
2019-04-27T12:02:28.104Z,80.00
2019-04-27T12:04:58.257Z,80.20
2019-04-27T12:07:26.953Z,79.90
2019-04-27T12:09:57.470Z,79.20
2019-04-27T12:12:26.891Z,79.50
2019-04-27T12:14:56.028Z,79.70
2019-04-27T12:17:29.056Z,79.50
2019-04-27T12:19:57.817Z,79.80
2019-04-27T12:22:27.148Z,79.30
2019-04-27T12:24:59.284Z,79.20
2019-04-27T12:27:47.549Z,78.90
2019-04-27T12:30:17.963Z,79.60
2019-04-27T12:32:46.717Z,78.50
2019-04-27T12:35:16.653Z,79.30
2019-04-27T12:37:45.794Z,78.70
2019-04-27T12:40:16.549Z,78.60
2019-04-27T12:42:46.105Z,78.90
2019-04-27T12:45:16.554Z,79.30
2019-04-27T12:47:47.161Z,78.40
2019-04-27T12:50:17.237Z,79.20
2019-04-27T12:52:49.814Z,79.20
2019-04-27T12:55:38.059Z,79.70
2019-04-27T12:58:10.933Z,80.20
2019-04-27T13:00:45.585Z,80.60
2019-04-27T13:03:16.017Z,80.60
2019-04-27T13:05:44.862Z,80.70
2019-04-27T13:08:13.479Z,81.00
2019-04-27T13:10:42.208Z,81.70
2019-04-27T13:13:12.220Z,81.50
2019-04-27T13:15:41.771Z,81.90
2019-04-27T13:18:13.390Z,82.10
2019-04-27T13:20:44.509Z,82.60
2019-04-27T13:23:13.348Z,83.00
2019-04-27T13:25:42.030Z,83.50
2019-04-27T13:28:11.995Z,83.40
2019-04-27T13:30:41.153Z,84.00
2019-04-27T13:33:09.896Z,83.90
2019-04-27T13:35:40.871Z,84.10
2019-04-27T13:38:11.109Z,84.20
2019-04-27T13:40:41.539Z,84.50
2019-04-27T13:43:11.845Z,84.50
2019-04-27T13:45:53.635Z,85.10
2019-04-27T13:48:39.230Z,85.30
2019-04-27T13:51:25.666Z,85.40
2019-04-27T13:53:55.123Z,86.00
2019-04-27T13:56:23.836Z,86.50
2019-04-27T13:58:53.739Z,86.40
2019-04-27T14:01:22.452Z,86.50
2019-04-27T14:03:51.277Z,86.90
2019-04-27T14:06:20.013Z,87.10
2019-04-27T14:08:49.914Z,87.40
2019-04-27T14:11:18.676Z,87.60
2019-04-27T14:13:48.474Z,88.30
2019-04-27T14:16:18.943Z,88.40
2019-04-27T14:18:48.181Z,88.80
2019-04-27T14:21:16.860Z,89.60
2019-04-27T14:23:48.475Z,90.00
2019-04-27T14:26:18.565Z,90.30
2019-04-27T14:28:48.092Z,90.50
2019-04-27T14:31:18.945Z,90.80
2019-04-27T14:33:52.139Z,90.80
2019-04-27T14:36:21.826Z,91.00
2019-04-27T14:38:54.757Z,91.10
2019-04-27T14:41:23.578Z,91.50
2019-04-27T14:44:05.351Z,91.60
2019-04-27T14:46:22.820Z,91.60
2019-04-27T14:48:51.640Z,91.60
2019-04-27T14:51:25.065Z,91.70
2019-04-27T14:53:52.137Z,91.80
2019-04-27T14:56:24.766Z,91.80
2019-04-27T14:58:53.807Z,91.70
2019-04-27T15:01:22.547Z,91.80
2019-04-27T15:03:51.202Z,91.90
2019-04-27T15:06:22.085Z,91.90
2019-04-27T15:08:50.873Z,91.90
2019-04-27T15:11:19.532Z,91.90
2019-04-27T15:13:53.289Z,91.70
2019-04-27T15:16:21.490Z,91.80
2019-04-27T15:18:55.869Z,91.50
2019-04-27T15:21:27.005Z,91.90
2019-04-27T15:23:56.761Z,91.60
2019-04-27T15:26:30.730Z,91.50
2019-04-27T15:29:02.556Z,91.50
2019-04-27T15:31:42.094Z,91.50
2019-04-27T15:34:12.513Z,91.90
2019-04-27T15:36:56.741Z,92.00
2019-04-27T15:39:43.616Z,92.30
2019-04-27T15:42:14.086Z,92.60
2019-04-27T15:44:44.248Z,92.80
2019-04-27T15:47:13.101Z,93.20
2019-04-27T15:49:49.820Z,92.70
2019-04-27T15:52:12.337Z,92.60
2019-04-27T15:54:41.840Z,92.50
2019-04-27T15:57:13.751Z,92.30
2019-04-27T15:59:42.310Z,92.30
2019-04-27T16:02:15.292Z,92.20
2019-04-27T16:04:44.332Z,92.20
2019-04-27T16:07:18.057Z,92.20
2019-04-27T16:09:45.499Z,92.10
2019-04-27T16:12:14.769Z,92.20
2019-04-27T16:14:44.270Z,92.20
2019-04-27T16:17:13.039Z,92.20
2019-04-27T16:19:46.759Z,92.10
2019-04-27T16:22:13.640Z,92.30
2019-04-27T16:24:42.426Z,92.50
2019-04-27T16:27:11.114Z,92.50
2019-04-27T16:29:41.695Z,92.60
2019-04-27T16:32:11.490Z,92.80
2019-04-27T16:34:41.364Z,93.00
2019-04-27T16:37:13.950Z,93.10
2019-04-27T16:39:45.657Z,93.30
2019-04-27T16:42:14.359Z,93.60
2019-04-27T16:44:49.520Z,93.70
2019-04-27T16:47:18.841Z,93.90
2019-04-27T16:49:51.500Z,93.90
2019-04-27T16:52:21.487Z,94.00
2019-04-27T16:54:56.972Z,94.10
2019-04-27T16:57:22.751Z,94.30
2019-04-27T16:59:57.532Z,94.20
2019-04-27T17:02:25.359Z,94.10
2019-04-27T17:04:56.653Z,94.10
2019-04-27T17:07:30.167Z,94.10
2019-04-27T17:09:59.407Z,94.00
2019-04-27T17:12:34.367Z,94.10
2019-04-27T17:15:19.002Z,94.00
2019-04-27T17:18:05.492Z,93.90
2019-04-27T17:20:44.541Z,93.90
2019-04-27T17:23:14.824Z,93.90
2019-04-27T17:25:44.872Z,93.90
2019-04-27T17:28:16.017Z,93.80
2019-04-27T17:30:46.334Z,93.90
2019-04-27T17:33:21.147Z,93.70
2019-04-27T17:35:50.736Z,93.80
2019-04-27T17:38:19.605Z,93.60
2019-04-27T17:40:51.605Z,93.70
2019-04-27T17:43:19.411Z,93.70
2019-04-27T17:45:48.705Z,93.60
2019-04-27T17:48:18.417Z,93.50
2019-04-27T17:50:48.879Z,93.40
2019-04-27T17:53:18.690Z,93.40
2019-04-27T17:55:48.171Z,93.50
2019-04-27T17:58:18.050Z,93.30
2019-04-27T18:00:46.950Z,93.30
2019-04-27T18:03:17.648Z,93.30
2019-04-27T18:05:49.355Z,93.30
2019-04-27T18:08:21.222Z,93.20
2019-04-27T18:10:53.605Z,93.10
2019-04-27T18:13:25.620Z,93.10
2019-04-27T18:15:54.122Z,93.10
2019-04-27T18:18:34.667Z,93.10
2019-04-27T18:21:03.683Z,93.00
2019-04-27T18:23:45.399Z,93.00
2019-04-27T18:26:19.287Z,93.00
2019-04-27T18:28:53.865Z,92.90
2019-04-27T18:31:21.037Z,92.80
2019-04-27T18:33:55.146Z,92.80
2019-04-27T18:36:25.846Z,92.80
2019-04-27T18:38:56.226Z,92.70
2019-04-27T18:41:24.937Z,92.70
2019-04-27T18:43:55.788Z,93.20
2019-04-27T18:46:28.195Z,93.00
2019-04-27T18:48:59.295Z,92.90
2019-04-27T18:51:42.611Z,92.80
2019-04-27T18:54:09.045Z,93.20
2019-04-27T18:56:41.464Z,92.60
2019-04-27T18:59:08.486Z,92.70
2019-04-27T19:01:41.657Z,92.80
2019-04-27T19:04:13.321Z,92.70
2019-04-27T19:06:42.137Z,92.80
2019-04-27T19:09:11.003Z,92.80
2019-04-27T19:11:53.047Z,92.80
2019-04-27T19:14:10.082Z,92.80
2019-04-27T19:16:41.780Z,92.80
2019-04-27T19:19:11.712Z,92.90
2019-04-27T19:21:41.875Z,92.90
2019-04-27T19:24:10.543Z,93.00
2019-04-27T19:26:48.311Z,93.00
2019-04-27T19:29:18.969Z,93.10
2019-04-27T19:31:50.078Z,93.40
2019-04-27T19:34:18.785Z,93.40
2019-04-27T19:36:48.888Z,93.60
2019-04-27T19:39:19.083Z,93.80
2019-04-27T19:41:58.009Z,93.90
2019-04-27T19:44:18.694Z,94.40
2019-04-27T19:46:49.261Z,94.00
2019-04-27T19:49:19.276Z,94.00
2019-04-27T19:51:48.316Z,93.80
2019-04-27T19:54:16.941Z,93.70
2019-04-27T19:56:45.818Z,93.40
2019-04-27T19:59:16.175Z,93.70
2019-04-27T20:01:48.111Z,93.30
2019-04-27T20:04:34.307Z,93.10
2019-04-27T20:07:03.690Z,93.00
2019-04-27T20:09:36.971Z,93.00
2019-04-27T20:12:10.288Z,93.00
2019-04-27T20:14:58.041Z,93.00
2019-04-27T20:17:31.215Z,92.80
2019-04-27T20:20:13.370Z,92.80
2019-04-27T20:22:49.629Z,92.90
2019-04-27T20:25:18.344Z,92.90
2019-04-27T20:27:49.980Z,92.60
2019-04-27T20:30:21.015Z,92.50
2019-04-27T20:32:51.086Z,92.40
2019-04-27T20:35:21.862Z,92.50
2019-04-27T20:37:51.863Z,92.60
2019-04-27T20:40:21.874Z,92.50
2019-04-27T20:42:52.308Z,92.40
2019-04-27T20:45:26.445Z,92.40
2019-04-27T20:47:55.236Z,92.40
2019-04-27T20:50:27.031Z,92.30
2019-04-27T20:52:56.385Z,92.30
2019-04-27T20:55:25.085Z,92.30
2019-04-27T20:58:01.865Z,92.40
2019-04-27T21:00:24.414Z,92.50
2019-04-27T21:03:01.848Z,92.30
2019-04-27T21:05:33.400Z,92.20
2019-04-27T21:08:08.528Z,92.30
2019-04-27T21:10:37.192Z,92.20
2019-04-27T21:13:06.058Z,92.30
2019-04-27T21:15:34.813Z,92.60
2019-04-27T21:18:06.279Z,92.20
2019-04-27T21:20:41.203Z,92.30
2019-04-27T21:23:11.895Z,92.20
2019-04-27T21:25:42.165Z,92.20
2019-04-27T21:28:17.860Z,92.30
2019-04-27T21:30:41.909Z,92.20
2019-04-27T21:33:11.492Z,92.20
2019-04-27T21:35:40.243Z,92.30
2019-04-27T21:38:08.900Z,92.30
2019-04-27T21:40:37.610Z,92.20
2019-04-27T21:43:07.707Z,92.00
2019-04-27T21:45:38.765Z,92.10
2019-04-27T21:48:10.829Z,92.00
2019-04-27T21:50:41.292Z,92.10
2019-04-27T21:53:21.169Z,92.00
2019-04-27T21:55:53.153Z,92.20
2019-04-27T21:58:28.666Z,92.00
2019-04-27T22:01:03.218Z,92.10
2019-04-27T22:03:36.049Z,92.00
2019-04-27T22:06:04.903Z,92.20
2019-04-27T22:08:33.607Z,92.30
2019-04-27T22:11:16.095Z,92.30
2019-04-27T22:13:44.629Z,92.30
2019-04-27T22:16:16.256Z,92.50
2019-04-27T22:18:45.163Z,92.50
2019-04-27T22:21:14.036Z,92.60
2019-04-27T22:23:45.907Z,92.70
2019-04-27T22:26:15.687Z,92.60
2019-04-27T22:28:49.306Z,92.60
2019-04-27T22:31:15.488Z,92.70
2019-04-27T22:33:45.416Z,92.90
2019-04-27T22:36:14.662Z,92.90
2019-04-27T22:38:43.649Z,92.90
2019-04-27T22:41:16.480Z,93.00
2019-04-27T22:43:56.585Z,93.00
2019-04-27T22:46:30.814Z,93.00
2019-04-27T22:49:01.727Z,93.00
2019-04-27T22:51:30.490Z,93.00
2019-04-27T22:53:59.196Z,93.10
2019-04-27T22:56:32.243Z,93.20
2019-04-27T22:59:04.018Z,93.20
2019-04-27T23:01:52.748Z,93.40
2019-04-27T23:04:32.418Z,93.40
2019-04-27T23:07:00.638Z,93.40
2019-04-27T23:09:29.813Z,93.50
2019-04-27T23:11:58.522Z,93.50
2019-04-27T23:14:27.255Z,93.60
2019-04-27T23:16:57.789Z,93.60
2019-04-27T23:19:28.314Z,93.60
2019-04-27T23:21:57.023Z,93.60
2019-04-27T23:24:27.612Z,93.70
2019-04-27T23:26:56.446Z,93.60
2019-04-27T23:29:25.293Z,93.70
2019-04-27T23:31:59.059Z,93.70
2019-04-27T23:34:27.698Z,93.80
2019-04-27T23:36:56.309Z,93.70
2019-04-27T23:39:26.043Z,93.70
2019-04-27T23:41:55.160Z,93.80
2019-04-27T23:44:24.006Z,93.90
2019-04-27T23:46:56.584Z,94.00
2019-04-27T23:49:25.265Z,94.00
2019-04-27T23:51:55.969Z,94.10
2019-04-27T23:54:25.326Z,94.10
2019-04-27T23:56:55.475Z,94.20
2019-04-27T23:59:25.359Z,94.20
